Time,TemperatureF,DewpointF,PressureIn,WindDirection,WindDirectionDegrees,WindSpeedMPH,WindSpeedGustMPH,Humidity,HourlyPrecipIn,Conditions,Clouds,dailyrainin,SolarRadiationWatts/m^2,SoftwareType,DateUTC
2013-01-08 00:00:00,62.3,61.7,30.18,NNE,27,2.9,4.6,98,0.00,,,0.01,0.0,WeatherDisplay:10.37,2013-01-08 05:00:00,
2013-01-08 00:01:00,62.3,61.7,30.17,ENE,57,3.4,6.0,98,0.00,RA,,0.00,0.0,WeatherDisplay:10.37,2013-01-08 05:01:00,
2013-01-08 00:02:00,62.3,61.7,30.17,NNE,29,1.3,5.8,98,0.00,RA,,0.00,0.0,WeatherDisplay:10.37,2013-01-08 05:02:00,
2013-01-08 00:07:00,62.2,61.6,30.17,NE,45,2.3,4.0,98,0.00,RA,,0.00,0.0,WeatherDisplay:10.37,2013-01-08 05:07:00,
2013-01-08 00:12:00,62.2,61.6,30.17,NE,42,3.1,4.6,98,0.00,,,0.00,0.0,WeatherDisplay:10.37,2013-01-08 05:12:00,
2013-01-08 00:17:00,62.2,61.6,30.17,NE,46,0.6,3.5,98,0.00,,,0.00,0.0,WeatherDisplay:10.37,2013-01-08 05:17:00,
2013-01-08 00:22:00,62.2,61.6,30.17,NE,34,1.8,3.5,98,0.00,,,0.00,0.0,WeatherDisplay:10.37,2013-01-08 05:22:00,
2013-01-08 00:27:00,62.2,61.6,30.17,NE,54,2.2,3.5,98,0.00,,,0.00,0.0,WeatherDisplay:10.37,2013-01-08 05:27:00,
2013-01-08 00:32:00,62.1,61.5,30.17,NE,38,0.5,2.3,98,0.00,,,0.00,0.0,WeatherDisplay:10.37,2013-01-08 05:32:00,
2013-01-08 00:37:00,62.2,61.6,30.17,NE,55,1.1,2.3,98,0.00,,,0.00,0.0,WeatherDisplay:10.37,2013-01-08 05:37:00,
2013-01-08 00:42:00,62.2,61.6,30.17,NE,47,1.4,3.5,98,0.00,,,0.00,0.0,WeatherDisplay:10.37,2013-01-08 05:42:00,
2013-01-08 00:47:00,62.3,61.7,30.17,NE,42,0.7,4.6,98,0.00,,,0.00,0.0,WeatherDisplay:10.37,2013-01-08 05:47:00,
2013-01-08 00:52:00,62.4,61.8,30.17,NE,38,3.7,8.1,98,0.00,,,0.00,0.0,WeatherDisplay:10.37,2013-01-08 05:52:00,
2013-01-08 00:57:00,62.5,61.9,30.17,NNE,32,2.9,6.9,98,0.00,,,0.00,0.0,WeatherDisplay:10.37,2013-01-08 05:57:00,
2013-01-08 01:02:00,62.7,62.1,30.16,NNE,31,1.5,3.5,98,0.00,,,0.00,0.0,WeatherDisplay:10.37,2013-01-08 06:02:00,
2013-01-08 01:08:00,62.7,62.1,30.16,NE,44,0.6,2.3,98,0.00,,,0.00,0.0,WeatherDisplay:10.37,2013-01-08 06:08:00,
2013-01-08 01:13:00,62.8,62.2,30.16,NE,50,1.7,3.5,98,0.00,,,0.00,0.0,WeatherDisplay:10.37,2013-01-08 06:13:00,
2013-01-08 01:18:00,62.7,62.1,30.16,NNE,33,0.5,4.6,98,0.00,,,0.00,0.0,WeatherDisplay:10.37,2013-01-08 06:18:00,
2013-01-08 01:23:00,62.7,62.1,30.16,NE,49,1.8,3.5,98,0.00,,,0.00,0.0,WeatherDisplay:10.37,2013-01-08 06:23:00,
2013-01-08 01:28:00,62.7,62.1,30.16,NE,46,3.2,5.8,98,0.00,,,0.00,0.0,WeatherDisplay:10.37,2013-01-08 06:28:00,
2013-01-08 01:33:00,62.7,62.1,30.16,NE,47,0.2,3.5,98,0.00,,,0.00,0.0,WeatherDisplay:10.37,2013-01-08 06:33:00,
2013-01-08 01:38:00,62.6,62.0,30.16,NE,45,1.1,2.3,98,0.00,,,0.00,0.0,WeatherDisplay:10.37,2013-01-08 06:38:00,
2013-01-08 01:43:00,62.5,61.9,30.16,NE,53,0.6,3.5,98,0.00,,,0.00,0.0,WeatherDisplay:10.37,2013-01-08 06:43:00,
2013-01-08 01:48:00,62.5,61.9,30.16,NE,41,1.3,3.5,98,0.00,,,0.00,0.0,WeatherDisplay:10.37,2013-01-08 06:48:00,
2013-01-08 01:53:00,62.5,61.9,30.16,NE,54,2.7,3.5,98,0.00,,,0.00,0.0,WeatherDisplay:10.37,2013-01-08 06:53:00,
2013-01-08 01:58:00,62.4,61.8,30.16,NE,41,0.4,1.1,98,0.00,,,0.00,0.0,WeatherDisplay:10.37,2013-01-08 06:58:00,
2013-01-08 02:03:00,62.4,61.8,30.15,NNE,23,1.0,2.3,98,0.00,,,0.00,0.0,WeatherDisplay:10.37,2013-01-08 07:03:00,
2013-01-08 02:08:00,62.3,61.7,30.15,ENE,57,0.8,4.0,98,0.00,,,0.00,0.0,WeatherDisplay:10.37,2013-01-08 07:08:00,
2013-01-08 02:13:00,62.3,61.7,30.15,NE,46,1.1,2.3,98,0.00,,,0.00,0.0,WeatherDisplay:10.37,2013-01-08 07:13:00,
2013-01-08 02:18:00,62.3,61.7,30.15,ENE,63,0.3,3.0,98,0.00,,,0.00,0.0,WeatherDisplay:10.37,2013-01-08 07:18:00,
2013-01-08 02:23:00,62.2,61.9,30.15,NNE,26,1.8,3.5,99,0.00,,,0.00,0.0,WeatherDisplay:10.37,2013-01-08 07:23:00,
2013-01-08 02:28:00,62.2,61.6,30.15,NE,44,1.2,3.5,98,0.00,,,0.00,0.0,WeatherDisplay:10.37,2013-01-08 07:28:00,
2013-01-08 02:33:00,62.2,61.9,30.15,NNE,28,0.3,3.5,99,0.00,,,0.00,0.0,WeatherDisplay:10.37,2013-01-08 07:33:00,
2013-01-08 02:38:00,62.1,61.8,30.15,NE,36,0.5,2.3,99,0.00,,,0.00,0.0,WeatherDisplay:10.37,2013-01-08 07:38:00,
2013-01-08 02:43:00,62.1,61.8,30.15,NE,53,0.6,2.3,99,0.00,,,0.00,0.0,WeatherDisplay:10.37,2013-01-08 07:43:00,
2013-01-08 02:48:00,62.1,61.8,30.15,NE,45,1.6,3.5,99,0.00,,,0.00,0.0,WeatherDisplay:10.37,2013-01-08 07:48:00,
2013-01-08 02:53:00,62.1,61.8,30.15,NE,38,1.5,4.6,99,0.00,,,0.00,0.0,WeatherDisplay:10.37,2013-01-08 07:53:00,
2013-01-08 02:58:00,62.1,61.8,30.15,NNE,30,1.6,3.5,99,0.00,,,0.00,0.0,WeatherDisplay:10.37,2013-01-08 07:58:00,
2013-01-08 03:03:00,62.1,61.8,30.15,NE,34,1.5,1.5,99,0.00,,,0.00,0.0,WeatherDisplay:10.37,2013-01-08 08:03:00,
2013-01-08 03:08:00,62.2,61.9,30.15,NNE,27,2.2,3.5,99,0.00,,,0.00,0.0,WeatherDisplay:10.37,2013-01-08 08:08:00,
2013-01-08 03:13:00,62.2,61.9,30.15,NE,44,0.9,3.5,99,0.00,,,0.00,0.0,WeatherDisplay:10.37,2013-01-08 08:13:00,
2013-01-08 03:18:00,62.2,61.9,30.15,North,10,2.6,3.5,99,0.00,,,0.00,0.0,WeatherDisplay:10.37,2013-01-08 08:18:00,
2013-01-08 03:23:00,62.2,61.9,30.15,ENE,63,1.3,3.5,99,0.00,,,0.00,0.0,WeatherDisplay:10.37,2013-01-08 08:23:00,
2013-01-08 03:28:00,62.3,62.0,30.15,ENE,57,1.9,6.0,99,0.00,,,0.00,0.0,WeatherDisplay:10.37,2013-01-08 08:28:00,
2013-01-08 03:33:00,62.2,61.9,30.15,NE,41,0.7,2.3,99,0.00,,,0.00,0.0,WeatherDisplay:10.37,2013-01-08 08:33:00,
2013-01-08 03:38:00,62.2,61.9,30.15,NE,35,0.8,2.3,99,0.00,,,0.00,0.0,WeatherDisplay:10.37,2013-01-08 08:38:00,
2013-01-08 03:43:00,62.2,61.9,30.15,NNE,27,1.0,2.3,99,0.00,,,0.00,0.0,WeatherDisplay:10.37,2013-01-08 08:43:00,
2013-01-08 03:48:00,62.2,61.9,30.15,ENE,73,0.3,2.3,99,0.00,,,0.00,0.0,WeatherDisplay:10.37,2013-01-08 08:48:00,
2013-01-08 03:53:00,62.2,61.9,30.15,NE,42,1.0,2.3,99,0.00,,,0.00,0.0,WeatherDisplay:10.37,2013-01-08 08:53:00,
2013-01-08 03:58:00,62.3,62.0,30.15,ENE,64,1.6,3.5,99,0.00,,,0.00,0.0,WeatherDisplay:10.37,2013-01-08 08:58:00,
2013-01-08 04:03:00,62.4,62.1,30.15,NE,43,0.8,3.5,99,0.00,,,0.00,0.0,WeatherDisplay:10.37,2013-01-08 09:03:00,
2013-01-08 04:08:00,62.5,62.2,30.15,NE,52,0.9,3.5,99,0.00,,,0.00,0.0,WeatherDisplay:10.37,2013-01-08 09:08:00,
2013-01-08 04:13:00,62.6,62.3,30.15,NE,51,1.6,3.5,99,0.00,,,0.00,0.0,WeatherDisplay:10.37,2013-01-08 09:13:00,
2013-01-08 04:18:00,62.7,62.4,30.15,NNE,30,0.4,2.3,99,0.00,,,0.00,0.0,WeatherDisplay:10.37,2013-01-08 09:18:00,
2013-01-08 04:23:00,62.7,62.1,30.15,NE,34,1.5,3.5,98,0.00,,,0.00,0.0,WeatherDisplay:10.37,2013-01-08 09:23:00,
2013-01-08 04:28:00,62.7,62.1,30.15,ENE,62,1.7,3.5,98,0.00,,,0.00,0.0,WeatherDisplay:10.37,2013-01-08 09:28:00,
2013-01-08 04:33:00,62.7,62.1,30.14,ENE,67,2.4,5.8,98,0.00,,,0.00,0.0,WeatherDisplay:10.37,2013-01-08 09:33:00,
2013-01-08 04:38:00,62.7,62.1,30.15,NE,49,1.8,3.5,98,0.00,,,0.00,0.0,WeatherDisplay:10.37,2013-01-08 09:38:00,
2013-01-08 04:43:00,62.7,62.1,30.15,NE,36,0.4,2.3,98,0.00,,,0.00,0.0,WeatherDisplay:10.37,2013-01-08 09:43:00,
2013-01-08 04:48:00,62.6,62.0,30.15,East,80,0.2,1.1,98,0.00,,,0.00,0.0,WeatherDisplay:10.37,2013-01-08 09:48:00,
2013-01-08 04:53:00,62.6,62.0,30.15,East,89,0.8,2.3,98,0.00,,,0.00,0.0,WeatherDisplay:10.37,2013-01-08 09:53:00,
2013-01-08 04:58:00,62.6,62.0,30.15,ENE,67,1.3,3.5,98,0.00,,,0.00,0.0,WeatherDisplay:10.37,2013-01-08 09:58:00,
2013-01-08 05:03:00,62.5,61.9,30.14,East,81,0.0,1.0,98,0.00,,,0.00,0.0,WeatherDisplay:10.37,2013-01-08 10:03:00,
2013-01-08 05:08:00,62.4,61.8,30.15,ENE,64,0.3,2.3,98,0.00,,,0.00,0.0,WeatherDisplay:10.37,2013-01-08 10:08:00,
2013-01-08 05:13:00,62.3,62.0,30.15,ENE,60,0.1,2.3,99,0.00,,,0.00,0.0,WeatherDisplay:10.37,2013-01-08 10:13:00,
2013-01-08 05:18:00,62.2,61.9,30.14,NE,46,0.1,1.1,99,0.00,,,0.00,0.0,WeatherDisplay:10.37,2013-01-08 10:18:00,
2013-01-08 05:23:00,62.1,61.8,30.14,NE,56,0.1,1.1,99,0.00,,,0.00,0.0,WeatherDisplay:10.37,2013-01-08 10:23:00,
2013-01-08 05:28:00,62.0,61.7,30.15,NE,49,1.1,2.3,99,0.00,,,0.00,0.0,WeatherDisplay:10.37,2013-01-08 10:28:00,
2013-01-08 05:33:00,62.0,61.7,30.15,NE,53,1.1,2.3,99,0.00,,,0.00,0.0,WeatherDisplay:10.37,2013-01-08 10:33:00,
2013-01-08 05:38:00,62.0,61.7,30.14,NE,44,1.4,3.5,99,0.00,,,0.00,0.0,WeatherDisplay:10.37,2013-01-08 10:38:00,
2013-01-08 05:43:00,62.0,61.7,30.15,NNE,25,2.0,3.5,99,0.00,,,0.00,0.0,WeatherDisplay:10.37,2013-01-08 10:43:00,
2013-01-08 05:48:00,62.1,61.8,30.15,NNE,24,1.8,3.5,99,0.00,,,0.00,0.0,WeatherDisplay:10.37,2013-01-08 10:48:00,
2013-01-08 05:53:00,62.1,61.8,30.15,NE,42,0.8,2.3,99,0.00,,,0.00,0.0,WeatherDisplay:10.37,2013-01-08 10:53:00,
2013-01-08 05:58:00,62.1,61.8,30.15,NNE,32,1.3,3.5,99,0.00,,,0.00,0.0,WeatherDisplay:10.37,2013-01-08 10:58:00,
2013-01-08 06:03:00,62.2,61.9,30.16,NE,55,0.7,2.3,99,0.00,,,0.00,0.0,WeatherDisplay:10.37,2013-01-08 11:03:00,
2013-01-08 06:08:00,62.2,61.9,30.15,ENE,67,1.0,3.5,99,0.00,,,0.00,0.0,WeatherDisplay:10.37,2013-01-08 11:08:00,
2013-01-08 06:13:00,62.1,61.8,30.15,ENE,64,0.7,2.3,99,0.00,,,0.00,0.0,WeatherDisplay:10.37,2013-01-08 11:13:00,
2013-01-08 06:18:00,62.2,61.9,30.16,NNE,27,0.4,4.6,99,0.00,,,0.00,0.0,WeatherDisplay:10.37,2013-01-08 11:18:00,
2013-01-08 06:23:00,62.2,61.9,30.16,NE,55,0.2,3.5,99,0.00,,,0.00,0.0,WeatherDisplay:10.37,2013-01-08 11:23:00,
2013-01-08 06:28:00,62.2,61.9,30.16,NE,34,1.9,3.5,99,0.00,,,0.00,0.0,WeatherDisplay:10.37,2013-01-08 11:28:00,
2013-01-08 06:33:00,62.2,61.9,30.16,East,85,1.3,3.5,99,0.00,,,0.00,0.0,WeatherDisplay:10.37,2013-01-08 11:33:00,
2013-01-08 06:38:00,62.2,61.9,30.17,East,95,0.6,2.3,99,0.00,,,0.00,0.0,WeatherDisplay:10.37,2013-01-08 11:38:00,
2013-01-08 06:43:00,62.3,62.0,30.17,NE,46,0.4,3.5,99,0.00,,,0.00,0.0,WeatherDisplay:10.37,2013-01-08 11:43:00,
2013-01-08 06:48:00,62.3,62.0,30.17,NE,40,0.8,3.5,99,0.00,,,0.00,0.0,WeatherDisplay:10.37,2013-01-08 11:48:00,
2013-01-08 06:53:00,62.3,62.0,30.17,East,86,0.5,4.6,99,0.00,,,0.00,0.0,WeatherDisplay:10.37,2013-01-08 11:53:00,
2013-01-08 06:58:00,62.3,62.0,30.18,NNE,24,0.3,2.3,99,0.00,,,0.00,0.0,WeatherDisplay:10.37,2013-01-08 11:58:00,
2013-01-08 07:03:00,62.3,62.0,30.18,NE,53,0.2,0.0,99,0.00,,,0.00,0.0,WeatherDisplay:10.37,2013-01-08 12:03:00,
2013-01-08 07:08:00,62.3,62.3,30.18,NE,46,0.4,3.5,100,0.00,,,0.00,0.0,WeatherDisplay:10.37,2013-01-08 12:08:00,
2013-01-08 07:13:00,62.3,62.3,30.19,NE,46,0.0,1.1,100,0.00,,,0.00,0.0,WeatherDisplay:10.37,2013-01-08 12:13:00,
2013-01-08 07:18:00,62.2,61.9,30.19,NE,45,0.0,1.1,99,0.00,,,0.00,0.0,WeatherDisplay:10.37,2013-01-08 12:18:00,
2013-01-08 07:23:00,62.0,62.0,30.19,NE,45,0.3,1.1,100,0.00,,,0.00,0.0,WeatherDisplay:10.37,2013-01-08 12:23:00,
2013-01-08 07:28:00,61.9,61.9,30.19,NNE,27,0.2,1.0,100,0.00,,,0.00,5.0,WeatherDisplay:10.37,2013-01-08 12:28:00,
2013-01-08 07:33:00,61.9,61.9,30.19,North,5,0.4,2.3,100,0.00,,,0.00,7.0,WeatherDisplay:10.37,2013-01-08 12:33:00,
2013-01-08 07:38:00,61.9,61.9,30.20,North,11,0.0,1.1,100,0.00,,,0.00,11.0,WeatherDisplay:10.37,2013-01-08 12:38:00,
2013-01-08 07:43:00,61.8,61.8,30.20,North,11,0.0,0.0,100,0.00,,,0.00,19.0,WeatherDisplay:10.37,2013-01-08 12:43:00,
2013-01-08 07:48:00,61.7,61.7,30.20,NE,52,0.7,3.5,100,0.00,,,0.00,30.0,WeatherDisplay:10.37,2013-01-08 12:48:00,
2013-01-08 07:54:00,61.8,61.8,30.20,NE,42,0.5,3.5,100,0.00,,,0.00,28.0,WeatherDisplay:10.37,2013-01-08 12:54:00,
2013-01-08 07:59:00,61.8,61.8,30.20,NNE,30,0.4,2.3,100,0.00,,,0.00,32.0,WeatherDisplay:10.37,2013-01-08 12:59:00,
2013-01-08 08:04:00,61.9,61.9,30.21,ENE,61,0.4,2.3,100,0.00,CLR,,0.00,44.0,WeatherDisplay:10.37,2013-01-08 13:04:00,
2013-01-08 08:09:00,62.2,62.2,30.21,NNE,30,0.1,1.0,100,0.00,CLR,,0.00,84.0,WeatherDisplay:10.37,2013-01-08 13:09:00,
2013-01-08 08:14:00,62.6,62.6,30.21,NNE,30,0.8,3.5,100,0.00,CLR,,0.00,102.0,WeatherDisplay:10.37,2013-01-08 13:14:00,
2013-01-08 08:19:00,63.0,63.0,30.21,NE,38,1.0,1.1,100,0.00,CLR,,0.00,102.0,WeatherDisplay:10.37,2013-01-08 13:19:00,
2013-01-08 08:24:00,63.5,63.5,30.21,NE,40,0.3,1.1,100,0.00,CLR,,0.00,49.0,WeatherDisplay:10.37,2013-01-08 13:24:00,
2013-01-08 08:29:00,63.9,63.9,30.21,ENE,72,0.8,2.0,100,0.00,CLR,,0.00,49.0,WeatherDisplay:10.37,2013-01-08 13:29:00,
2013-01-08 08:34:00,64.3,64.0,30.21,ENE,76,2.0,3.5,99,0.00,CLR,,0.00,98.0,WeatherDisplay:10.37,2013-01-08 13:34:00,
2013-01-08 08:39:00,64.7,64.4,30.22,NNE,22,1.3,3.5,99,0.00,CLR,,0.00,141.0,WeatherDisplay:10.37,2013-01-08 13:39:00,
2013-01-08 08:44:00,65.0,64.4,30.22,NE,48,0.4,3.5,98,0.00,CLR,,0.00,169.0,WeatherDisplay:10.37,2013-01-08 13:44:00,
2013-01-08 08:49:00,65.6,65.0,30.22,NNE,33,3.3,8.1,98,0.00,CLR,,0.00,105.0,WeatherDisplay:10.37,2013-01-08 13:49:00,
2013-01-08 08:54:00,66.0,65.4,30.22,ENE,69,0.3,1.1,98,0.00,CLR,,0.00,207.0,WeatherDisplay:10.37,2013-01-08 13:54:00,
2013-01-08 08:59:00,66.6,65.7,30.22,NE,39,1.5,4.6,97,0.00,CLR,,0.00,227.0,WeatherDisplay:10.37,2013-01-08 13:59:00,
2013-01-08 09:04:00,66.9,66.0,30.22,NE,53,0.3,3.5,97,0.00,OVC,,0.00,239.0,WeatherDisplay:10.37,2013-01-08 14:04:00,
2013-01-08 09:09:00,67.4,66.2,30.23,NNE,13,1.7,3.5,96,0.00,OVC,,0.00,251.0,WeatherDisplay:10.37,2013-01-08 14:09:00,
2013-01-08 09:14:00,67.9,66.7,30.23,North,5,0.7,4.6,96,0.00,OVC,,0.00,271.0,WeatherDisplay:10.37,2013-01-08 14:14:00,
2013-01-08 09:19:00,68.5,67.3,30.23,ENE,63,0.1,3.5,96,0.00,OVC,,0.00,287.0,WeatherDisplay:10.37,2013-01-08 14:19:00,
2013-01-08 09:24:00,68.7,67.2,30.23,East,93,1.2,3.5,95,0.00,OVC,,0.00,302.0,WeatherDisplay:10.37,2013-01-08 14:24:00,
2013-01-08 09:29:00,69.1,67.3,30.23,NE,46,1.9,6.9,94,0.00,OVC,,0.00,316.0,WeatherDisplay:10.37,2013-01-08 14:29:00,
2013-01-08 09:34:00,69.1,67.3,30.23,East,101,3.5,8.1,94,0.00,OVC,,0.00,329.0,WeatherDisplay:10.37,2013-01-08 14:34:00,
2013-01-08 09:39:00,69.5,67.7,30.24,NE,44,2.4,6.9,94,0.00,OVC,,0.00,343.0,WeatherDisplay:10.37,2013-01-08 14:39:00,
2013-01-08 09:44:00,70.0,68.2,30.24,East,92,2.4,3.5,94,0.00,OVC,,0.00,357.0,WeatherDisplay:10.37,2013-01-08 14:44:00,
2013-01-08 09:49:00,70.4,68.3,30.24,NNE,28,0.8,4.6,93,0.00,OVC,,0.00,371.0,WeatherDisplay:10.37,2013-01-08 14:49:00,
2013-01-08 09:54:00,70.9,68.8,30.23,NNE,18,1.7,3.5,93,0.00,OVC,,0.00,397.0,WeatherDisplay:10.37,2013-01-08 14:54:00,
2013-01-08 09:59:00,71.0,68.6,30.24,ESE,104,2.2,5.8,92,0.00,OVC,,0.00,272.0,WeatherDisplay:10.37,2013-01-08 14:59:00,
2013-01-08 10:04:00,71.2,68.8,30.24,ENE,63,4.4,10.4,92,0.00,OVC,,0.00,410.0,WeatherDisplay:10.37,2013-01-08 15:04:00,
2013-01-08 10:09:00,71.5,68.7,30.24,East,91,2.1,4.6,91,0.00,OVC,,0.00,445.0,WeatherDisplay:10.37,2013-01-08 15:09:00,
2013-01-08 10:14:00,71.6,68.8,30.23,ENE,76,0.5,2.3,91,0.00,OVC,,0.00,434.0,WeatherDisplay:10.37,2013-01-08 15:14:00,
2013-01-08 10:19:00,72.1,69.0,30.23,ENE,70,2.7,8.1,90,0.00,OVC,,0.00,446.0,WeatherDisplay:10.37,2013-01-08 15:19:00,
2013-01-08 10:24:00,72.6,69.8,30.23,NE,54,0.3,3.0,91,0.00,OVC,,0.00,455.0,WeatherDisplay:10.37,2013-01-08 15:24:00,
2013-01-08 10:29:00,72.9,69.8,30.23,ESE,106,1.2,3.5,90,0.00,OVC,,0.00,468.0,WeatherDisplay:10.37,2013-01-08 15:29:00,
2013-01-08 10:34:00,72.9,69.5,30.23,East,89,4.5,8.0,89,0.00,OVC,,0.00,478.0,WeatherDisplay:10.37,2013-01-08 15:34:00,
2013-01-08 10:39:00,73.1,69.7,30.22,East,93,1.8,3.5,89,0.00,OVC,,0.00,490.0,WeatherDisplay:10.37,2013-01-08 15:39:00,
2013-01-08 10:44:00,73.6,70.5,30.22,NNE,23,0.4,2.3,90,0.00,OVC,,0.00,499.0,WeatherDisplay:10.37,2013-01-08 15:44:00,
2013-01-08 10:49:00,74.4,70.3,30.22,NE,40,3.1,4.6,87,0.00,OVC,,0.00,512.0,WeatherDisplay:10.37,2013-01-08 15:49:00,
2013-01-08 10:54:00,74.7,70.9,30.22,NE,46,1.6,3.5,88,0.00,OVC,,0.00,519.0,WeatherDisplay:10.37,2013-01-08 15:54:00,
2013-01-08 10:59:00,75.0,70.9,30.22,ESE,123,2.0,5.8,87,0.00,OVC,,0.00,527.0,WeatherDisplay:10.37,2013-01-08 15:59:00,
2013-01-08 11:04:00,74.8,70.7,30.22,ESE,109,1.8,3.5,87,0.00,OVC,,0.00,538.0,WeatherDisplay:10.37,2013-01-08 16:04:00,
2013-01-08 11:09:00,75.5,70.7,30.22,East,80,2.2,6.0,85,0.00,OVC,,0.00,548.0,WeatherDisplay:10.37,2013-01-08 16:09:00,
2013-01-08 11:14:00,75.4,70.9,30.22,North,5,2.1,4.6,86,0.00,OVC,,0.00,554.0,WeatherDisplay:10.37,2013-01-08 16:14:00,
2013-01-08 11:19:00,75.8,71.3,30.21,NE,46,1.6,4.6,86,0.00,OVC,,0.00,563.0,WeatherDisplay:10.37,2013-01-08 16:19:00,
2013-01-08 11:24:00,76.2,71.7,30.21,East,94,0.8,3.5,86,0.00,OVC,,0.00,568.0,WeatherDisplay:10.37,2013-01-08 16:24:00,
2013-01-08 11:29:00,76.0,71.2,30.21,NE,47,2.0,5.8,85,0.00,OVC,,0.00,573.0,WeatherDisplay:10.37,2013-01-08 16:29:00,
2013-01-08 11:34:00,75.5,70.7,30.21,SSE,149,3.4,4.6,85,0.00,OVC,,0.00,580.0,WeatherDisplay:10.37,2013-01-08 16:34:00,
2013-01-08 11:39:00,76.1,71.3,30.20,South,181,1.6,5.0,85,0.00,OVC,,0.00,587.0,WeatherDisplay:10.37,2013-01-08 16:39:00,
2013-01-08 11:44:00,76.4,71.2,30.20,ESE,116,3.9,6.9,84,0.00,OVC,,0.00,591.0,WeatherDisplay:10.37,2013-01-08 16:44:00,
2013-01-08 11:49:00,76.6,71.4,30.20,ENE,76,1.9,5.0,84,0.00,OVC,,0.00,598.0,WeatherDisplay:10.37,2013-01-08 16:49:00,
2013-01-08 11:54:00,76.5,70.9,30.20,SSW,200,1.8,4.6,83,0.00,OVC,,0.00,596.0,WeatherDisplay:10.37,2013-01-08 16:54:00,
2013-01-08 11:59:00,76.8,71.2,30.20,East,97,1.9,5.0,83,0.00,OVC,,0.00,599.0,WeatherDisplay:10.37,2013-01-08 16:59:00,
2013-01-08 12:04:00,77.4,71.8,30.19,SE,131,0.7,2.3,83,0.00,OVC,,0.00,608.0,WeatherDisplay:10.37,2013-01-08 17:04:00,
2013-01-08 12:09:00,77.8,72.2,30.19,East,93,2.2,5.0,83,0.00,OVC,,0.00,606.0,WeatherDisplay:10.37,2013-01-08 17:09:00,
2013-01-08 12:14:00,77.8,71.5,30.19,ENE,73,4.4,5.8,81,0.00,OVC,,0.00,612.0,WeatherDisplay:10.37,2013-01-08 17:14:00,
2013-01-08 12:19:00,77.6,71.3,30.19,NE,38,3.3,4.6,81,0.00,OVC,,0.00,615.0,WeatherDisplay:10.37,2013-01-08 17:19:00,
2013-01-08 12:24:00,77.9,71.6,30.18,NE,36,2.8,4.6,81,0.00,OVC,,0.00,617.0,WeatherDisplay:10.37,2013-01-08 17:24:00,
2013-01-08 12:29:00,78.4,72.1,30.18,SSE,157,2.0,4.6,81,0.00,OVC,,0.00,621.0,WeatherDisplay:10.37,2013-01-08 17:29:00,
2013-01-08 12:34:00,78.9,71.5,30.18,NE,40,2.0,9.2,78,0.00,OVC,,0.00,615.0,WeatherDisplay:10.37,2013-01-08 17:34:00,
2013-01-08 12:39:00,78.6,71.2,30.18,NE,56,3.4,8.1,78,0.00,OVC,,0.00,621.0,WeatherDisplay:10.37,2013-01-08 17:39:00,
2013-01-08 12:44:00,78.6,71.2,30.17,ENE,62,2.0,7.0,78,0.00,OVC,,0.00,619.0,WeatherDisplay:10.37,2013-01-08 17:44:00,
2013-01-08 12:49:00,78.6,71.2,30.17,ENE,71,3.4,9.2,78,0.00,OVC,,0.00,617.0,WeatherDisplay:10.37,2013-01-08 17:49:00,
2013-01-08 12:54:00,78.8,71.4,30.17,East,101,2.9,4.6,78,0.00,OVC,,0.00,619.0,WeatherDisplay:10.37,2013-01-08 17:54:00,
2013-01-08 12:59:00,79.5,71.3,30.17,SE,126,2.0,5.8,76,0.00,OVC,,0.00,615.0,WeatherDisplay:10.37,2013-01-08 17:59:00,
2013-01-08 13:04:00,79.7,71.5,30.17,South,191,2.8,9.2,76,0.00,OVC,,0.00,613.0,WeatherDisplay:10.37,2013-01-08 18:04:00,
2013-01-08 13:09:00,79.8,71.2,30.17,East,99,3.2,6.9,75,0.00,OVC,,0.00,608.0,WeatherDisplay:10.37,2013-01-08 18:09:00,
2013-01-08 13:14:00,79.7,70.7,30.16,ENE,63,1.9,6.9,74,0.00,OVC,,0.00,608.0,WeatherDisplay:10.37,2013-01-08 18:14:00,
2013-01-08 13:19:00,80.2,71.6,30.16,NE,55,2.1,4.0,75,0.00,OVC,,0.00,601.0,WeatherDisplay:10.37,2013-01-08 18:19:00,
2013-01-08 13:24:00,80.4,71.3,30.16,East,80,3.1,6.9,74,0.00,OVC,,0.00,598.0,WeatherDisplay:10.37,2013-01-08 18:24:00,
2013-01-08 13:29:00,80.6,70.7,30.16,NE,53,5.6,10.4,72,0.00,OVC,,0.00,592.0,WeatherDisplay:10.37,2013-01-08 18:29:00,
2013-01-08 13:34:00,80.2,70.4,30.16,ENE,67,2.9,6.9,72,0.00,OVC,,0.00,587.0,WeatherDisplay:10.37,2013-01-08 18:34:00,
2013-01-08 13:39:00,80.2,70.4,30.16,NE,54,3.9,6.9,72,0.00,OVC,,0.00,585.0,WeatherDisplay:10.37,2013-01-08 18:39:00,
2013-01-08 13:44:00,80.6,70.3,30.15,SSE,155,1.0,4.6,71,0.00,OVC,,0.00,575.0,WeatherDisplay:10.37,2013-01-08 18:44:00,
2013-01-08 13:49:00,80.8,70.5,30.15,ESE,121,2.9,6.9,71,0.00,OVC,,0.00,570.0,WeatherDisplay:10.37,2013-01-08 18:49:00,
2013-01-08 13:54:00,80.9,70.2,30.15,SSE,148,4.1,8.1,70,0.00,OVC,,0.00,563.0,WeatherDisplay:10.37,2013-01-08 18:54:00,
2013-01-08 13:59:00,80.8,69.7,30.15,ESE,107,1.1,6.9,69,0.00,OVC,,0.00,561.0,WeatherDisplay:10.37,2013-01-08 18:59:00,
2013-01-08 14:04:00,81.3,70.2,30.15,ESE,106,2.8,10.4,69,0.00,OVC,,0.00,548.0,WeatherDisplay:10.37,2013-01-08 19:04:00,
2013-01-08 14:09:00,81.0,69.9,30.14,ESE,102,1.7,6.9,69,0.00,OVC,,0.00,543.0,WeatherDisplay:10.37,2013-01-08 19:09:00,
2013-01-08 14:14:00,81.4,69.8,30.15,NE,51,0.9,8.1,68,0.00,OVC,,0.00,533.0,WeatherDisplay:10.37,2013-01-08 19:14:00,
2013-01-08 14:19:00,81.3,69.3,30.14,ENE,77,3.5,5.8,67,0.00,OVC,,0.00,527.0,WeatherDisplay:10.37,2013-01-08 19:19:00,
2013-01-08 14:24:00,81.4,69.4,30.15,ESE,123,2.5,6.9,67,0.00,OVC,,0.00,519.0,WeatherDisplay:10.37,2013-01-08 19:24:00,
2013-01-08 14:29:00,81.5,69.9,30.14,SSE,165,2.1,6.9,68,0.00,OVC,,0.00,508.0,WeatherDisplay:10.37,2013-01-08 19:29:00,
2013-01-08 14:34:00,81.6,69.6,30.14,ESE,119,1.9,3.5,67,0.00,OVC,,0.00,496.0,WeatherDisplay:10.37,2013-01-08 19:34:00,
2013-01-08 14:39:00,81.8,68.9,30.14,ENE,61,3.0,4.6,65,0.00,OVC,,0.00,485.0,WeatherDisplay:10.37,2013-01-08 19:39:00,
2013-01-08 14:44:00,82.0,69.5,30.14,NE,54,0.9,2.3,66,0.00,OVC,,0.00,485.0,WeatherDisplay:10.37,2013-01-08 19:44:00,
2013-01-08 14:49:00,82.2,69.3,30.14,ENE,76,1.9,6.9,65,0.00,OVC,,0.00,469.0,WeatherDisplay:10.37,2013-01-08 19:49:00,
2013-01-08 14:54:00,81.9,69.0,30.14,East,98,1.3,5.8,65,0.00,OVC,,0.00,455.0,WeatherDisplay:10.37,2013-01-08 19:54:00,
2013-01-08 14:59:00,82.2,69.3,30.14,ENE,67,0.9,3.0,65,0.00,OVC,,0.00,443.0,WeatherDisplay:10.37,2013-01-08 19:59:00,
2013-01-08 15:04:00,82.0,69.1,30.14,SE,124,0.7,3.0,65,0.00,OVC,,0.00,432.0,WeatherDisplay:10.37,2013-01-08 20:04:00,
2013-01-08 15:09:00,82.1,68.7,30.14,NE,39,2.3,5.0,64,0.00,OVC,,0.00,420.0,WeatherDisplay:10.37,2013-01-08 20:09:00,
2013-01-08 15:14:00,82.4,68.5,30.14,ESE,119,0.9,1.1,63,0.00,OVC,,0.00,406.0,WeatherDisplay:10.37,2013-01-08 20:14:00,
2013-01-08 15:19:00,82.3,68.9,30.14,NE,35,1.5,4.6,64,0.00,OVC,,0.00,397.0,WeatherDisplay:10.37,2013-01-08 20:19:00,
2013-01-08 15:24:00,82.4,69.0,30.14,NNE,26,2.1,3.5,64,0.00,OVC,,0.00,388.0,WeatherDisplay:10.37,2013-01-08 20:24:00,
2013-01-08 15:29:00,82.2,68.8,30.14,East,88,2.1,3.5,64,0.00,OVC,,0.00,367.0,WeatherDisplay:10.37,2013-01-08 20:29:00,
2013-01-08 15:35:00,82.1,68.3,30.14,NNE,29,2.3,6.9,63,0.00,OVC,,0.00,359.0,WeatherDisplay:10.37,2013-01-08 20:35:00,
2013-01-08 15:40:00,82.2,68.3,30.14,NNE,30,2.8,5.0,63,0.00,OVC,,0.00,343.0,WeatherDisplay:10.37,2013-01-08 20:40:00,
2013-01-08 15:45:00,82.1,68.3,30.14,NE,40,2.0,3.5,63,0.00,OVC,,0.00,330.0,WeatherDisplay:10.37,2013-01-08 20:45:00,
2013-01-08 15:50:00,82.0,67.7,30.14,ENE,63,1.1,5.8,62,0.00,OVC,,0.00,322.0,WeatherDisplay:10.37,2013-01-08 20:50:00,
2013-01-08 15:55:00,82.0,68.2,30.14,East,90,4.4,6.9,63,0.00,OVC,,0.00,302.0,WeatherDisplay:10.37,2013-01-08 20:55:00,
2013-01-08 16:00:00,82.0,68.6,30.14,East,88,0.8,3.5,64,0.00,OVC,,0.00,285.0,WeatherDisplay:10.37,2013-01-08 21:00:00,
2013-01-08 16:05:00,82.2,68.3,30.13,NNE,17,2.7,3.5,63,0.00,,,0.00,272.0,WeatherDisplay:10.37,2013-01-08 21:05:00,
2013-01-08 16:10:00,81.8,68.4,30.13,NE,48,2.5,3.5,64,0.00,,,0.00,253.0,WeatherDisplay:10.37,2013-01-08 21:10:00,
2013-01-08 16:15:00,81.6,68.2,30.13,East,82,1.6,3.5,64,0.00,,,0.00,239.0,WeatherDisplay:10.37,2013-01-08 21:15:00,
2013-01-08 16:20:00,81.6,68.2,30.13,NE,39,2.9,4.6,64,0.00,,,0.00,218.0,WeatherDisplay:10.37,2013-01-08 21:20:00,
2013-01-08 16:25:00,81.6,68.2,30.13,NNE,19,2.7,4.6,64,0.00,,,0.00,207.0,WeatherDisplay:10.37,2013-01-08 21:25:00,
2013-01-08 16:30:00,81.5,68.1,30.13,ENE,71,3.1,6.9,64,0.00,,,0.00,185.0,WeatherDisplay:10.37,2013-01-08 21:30:00,
2013-01-08 16:35:00,81.4,68.1,30.13,ENE,57,1.7,3.5,64,0.00,,,0.00,171.0,WeatherDisplay:10.37,2013-01-08 21:35:00,
2013-01-08 16:40:00,81.0,68.1,30.13,NE,45,1.0,3.5,65,0.00,,,0.00,74.0,WeatherDisplay:10.37,2013-01-08 21:40:00,
2013-01-08 16:45:00,81.0,68.1,30.14,NNE,15,2.0,5.8,65,0.00,,,0.00,65.0,WeatherDisplay:10.37,2013-01-08 21:45:00,
2013-01-08 16:50:00,80.8,67.9,30.14,NE,40,1.8,3.5,65,0.00,,,0.00,44.0,WeatherDisplay:10.37,2013-01-08 21:50:00,
2013-01-08 16:55:00,80.5,67.6,30.14,North,9,1.5,3.5,65,0.00,,,0.00,42.0,WeatherDisplay:10.37,2013-01-08 21:55:00,
2013-01-08 17:00:00,80.2,67.8,30.14,NNE,27,0.5,3.5,66,0.00,,,0.00,40.0,WeatherDisplay:10.37,2013-01-08 22:00:00,
2013-01-08 17:05:00,79.9,68.0,30.14,NE,40,0.5,1.1,67,0.00,,,0.00,39.0,WeatherDisplay:10.37,2013-01-08 22:05:00,
2013-01-08 17:10:00,79.7,67.8,30.14,NE,40,0.3,1.1,67,0.00,,,0.00,35.0,WeatherDisplay:10.37,2013-01-08 22:10:00,
2013-01-08 17:15:00,79.5,68.0,30.14,NNE,33,0.4,1.1,68,0.00,,,0.00,30.0,WeatherDisplay:10.37,2013-01-08 22:15:00,
2013-01-08 17:20:00,79.3,67.8,30.14,ENE,76,0.0,1.1,68,0.00,,,0.00,30.0,WeatherDisplay:10.37,2013-01-08 22:20:00,
2013-01-08 17:25:00,79.1,68.1,30.14,NNE,16,0.3,3.5,69,0.00,,,0.00,28.0,WeatherDisplay:10.37,2013-01-08 22:25:00,
2013-01-08 17:30:00,78.9,67.9,30.14,NNE,32,0.0,1.1,69,0.00,CLR,,0.00,26.0,WeatherDisplay:10.37,2013-01-08 22:30:00,
2013-01-08 17:35:00,78.7,68.1,30.14,ENE,68,1.3,3.5,70,0.00,SCT,,0.00,18.0,WeatherDisplay:10.37,2013-01-08 22:35:00,
2013-01-08 17:40:00,78.6,68.0,30.14,ENE,68,0.0,0.0,70,0.00,BKN,,0.00,14.0,WeatherDisplay:10.37,2013-01-08 22:40:00,
2013-01-08 17:45:00,78.5,68.3,30.14,ENE,66,0.0,1.0,71,0.00,BKN,,0.00,7.0,WeatherDisplay:10.37,2013-01-08 22:45:00,
2013-01-08 17:50:00,78.4,68.2,30.14,ENE,69,0.2,1.1,71,0.00,,,0.00,0.0,WeatherDisplay:10.37,2013-01-08 22:50:00,
2013-01-08 17:55:00,78.1,67.9,30.14,NNE,18,0.5,2.3,71,0.00,,,0.00,0.0,WeatherDisplay:10.37,2013-01-08 22:55:00,
2013-01-08 18:00:00,77.8,68.0,30.14,NNE,18,0.4,1.1,72,0.00,,,0.00,0.0,WeatherDisplay:10.37,2013-01-08 23:00:00,
2013-01-08 18:05:00,77.5,68.2,30.14,ENE,73,0.7,2.3,73,0.00,,,0.00,0.0,WeatherDisplay:10.37,2013-01-08 23:05:00,
2013-01-08 18:10:00,77.2,67.9,30.14,ENE,76,0.0,0.0,73,0.00,,,0.00,0.0,WeatherDisplay:10.37,2013-01-08 23:10:00,
2013-01-08 18:15:00,77.1,67.8,30.14,ENE,78,0.0,0.0,73,0.00,,,0.00,0.0,WeatherDisplay:10.37,2013-01-08 23:15:00,
2013-01-08 18:20:00,76.9,67.6,30.15,ENE,61,1.3,4.6,73,0.00,,,0.00,0.0,WeatherDisplay:10.37,2013-01-08 23:20:00,
2013-01-08 18:25:00,76.9,68.0,30.15,ENE,64,0.2,1.1,74,0.00,,,0.00,0.0,WeatherDisplay:10.37,2013-01-08 23:25:00,
2013-01-08 18:30:00,76.8,67.9,30.15,NNE,27,0.9,2.3,74,0.00,,,0.00,0.0,WeatherDisplay:10.37,2013-01-08 23:30:00,
2013-01-08 18:35:00,76.7,68.2,30.15,ENE,63,1.4,3.5,75,0.00,,,0.00,0.0,WeatherDisplay:10.37,2013-01-08 23:35:00,
2013-01-08 18:40:00,76.6,68.1,30.15,NNE,25,0.2,1.1,75,0.00,,,0.00,0.0,WeatherDisplay:10.37,2013-01-08 23:40:00,
2013-01-08 18:45:00,76.4,68.3,30.15,NE,55,0.1,1.1,76,0.00,,,0.00,0.0,WeatherDisplay:10.37,2013-01-08 23:45:00,
2013-01-08 18:50:00,76.2,68.1,30.15,ENE,68,0.1,1.1,76,0.00,,,0.00,0.0,WeatherDisplay:10.37,2013-01-08 23:50:00,
2013-01-08 18:55:00,76.1,68.4,30.15,ENE,66,1.0,2.3,77,0.00,,,0.00,0.0,WeatherDisplay:10.37,2013-01-08 23:55:00,
2013-01-08 19:00:00,76.1,68.4,30.15,ENE,63,1.8,3.5,77,0.00,,,0.00,0.0,WeatherDisplay:10.37,2013-01-09 00:00:00,
2013-01-08 19:05:00,76.0,68.3,30.15,East,86,0.3,2.3,77,0.00,,,0.00,0.0,WeatherDisplay:10.37,2013-01-09 00:05:00,
2013-01-08 19:10:00,76.1,68.7,30.15,ENE,77,0.4,1.1,78,0.00,,,0.00,0.0,WeatherDisplay:10.37,2013-01-09 00:10:00,
2013-01-08 19:15:00,76.0,68.6,30.15,North,5,1.0,3.5,78,0.00,,,0.00,0.0,WeatherDisplay:10.37,2013-01-09 00:15:00,
2013-01-08 19:20:00,75.8,68.8,30.15,East,92,2.0,4.6,79,0.00,,,0.00,0.0,WeatherDisplay:10.37,2013-01-09 00:20:00,
2013-01-08 19:25:00,75.8,68.8,30.15,ENE,60,0.3,2.3,79,0.00,,,0.00,0.0,WeatherDisplay:10.37,2013-01-09 00:25:00,
2013-01-08 19:30:00,75.7,68.7,30.15,NE,48,1.9,3.5,79,0.00,,,0.00,0.0,WeatherDisplay:10.37,2013-01-09 00:30:00,
2013-01-08 19:35:00,75.6,68.6,30.15,ENE,59,0.8,2.3,79,0.00,,,0.00,0.0,WeatherDisplay:10.37,2013-01-09 00:35:00,
2013-01-08 19:40:00,75.5,68.9,30.15,ENE,76,2.6,4.6,80,0.00,,,0.00,0.0,WeatherDisplay:10.37,2013-01-09 00:40:00,
2013-01-08 19:45:00,75.3,68.7,30.15,NE,53,0.1,1.1,80,0.00,,,0.00,0.0,WeatherDisplay:10.37,2013-01-09 00:45:00,
2013-01-08 19:50:00,75.2,69.0,30.15,NE,54,0.4,2.3,81,0.00,,,0.00,0.0,WeatherDisplay:10.37,2013-01-09 00:50:00,
2013-01-08 19:55:00,75.0,68.8,30.16,East,94,1.4,4.6,81,0.00,,,0.00,0.0,WeatherDisplay:10.37,2013-01-09 00:55:00,
2013-01-08 20:00:00,74.9,69.0,30.16,ENE,66,0.7,3.0,82,0.00,,,0.00,0.0,WeatherDisplay:10.37,2013-01-09 01:00:00,
2013-01-08 20:05:00,74.8,68.9,30.16,NE,53,1.0,2.3,82,0.00,,,0.00,0.0,WeatherDisplay:10.37,2013-01-09 01:05:00,
2013-01-08 20:10:00,74.6,69.1,30.16,East,84,2.5,5.0,83,0.00,,,0.00,0.0,WeatherDisplay:10.37,2013-01-09 01:10:00,
2013-01-08 20:15:00,74.5,69.0,30.16,ENE,76,0.2,3.5,83,0.00,,,0.00,0.0,WeatherDisplay:10.37,2013-01-09 01:15:00,
2013-01-08 20:20:00,74.4,68.9,30.16,East,98,2.4,3.5,83,0.00,,,0.00,0.0,WeatherDisplay:10.37,2013-01-09 01:20:00,
2013-01-08 20:25:00,74.4,68.9,30.16,ENE,72,1.0,2.3,83,0.00,,,0.00,0.0,WeatherDisplay:10.37,2013-01-09 01:25:00,
2013-01-08 20:30:00,74.4,69.2,30.16,East,90,2.0,6.9,84,0.00,,,0.00,0.0,WeatherDisplay:10.37,2013-01-09 01:30:00,
2013-01-08 20:35:00,74.3,69.1,30.16,NE,55,2.3,8.0,84,0.00,,,0.00,0.0,WeatherDisplay:10.37,2013-01-09 01:35:00,
2013-01-08 20:40:00,74.2,69.4,30.16,ENE,73,2.5,4.0,85,0.00,,,0.00,0.0,WeatherDisplay:10.37,2013-01-09 01:40:00,
2013-01-08 20:45:00,74.1,69.3,30.16,ENE,57,1.2,3.5,85,0.00,,,0.00,0.0,WeatherDisplay:10.37,2013-01-09 01:45:00,
2013-01-08 20:50:00,74.0,69.2,30.16,ENE,58,2.6,4.6,85,0.00,,,0.00,0.0,WeatherDisplay:10.37,2013-01-09 01:50:00,
2013-01-08 20:55:00,73.8,69.0,30.16,ENE,74,1.3,3.5,85,0.00,,,0.00,0.0,WeatherDisplay:10.37,2013-01-09 01:55:00,
2013-01-08 21:00:00,73.6,69.2,30.16,East,84,1.7,3.5,86,0.00,,,0.00,0.0,WeatherDisplay:10.37,2013-01-09 02:00:00,
2013-01-08 21:05:00,73.5,69.1,30.16,NE,35,2.4,5.0,86,0.00,,,0.00,0.0,WeatherDisplay:10.37,2013-01-09 02:05:00,
2013-01-08 21:10:00,73.3,69.2,30.16,ENE,62,1.2,4.6,87,0.00,,,0.00,0.0,WeatherDisplay:10.37,2013-01-09 02:10:00,
2013-01-08 21:15:00,73.3,69.2,30.17,ENE,61,1.1,4.6,87,0.00,,,0.00,0.0,WeatherDisplay:10.37,2013-01-09 02:15:00,
2013-01-08 21:20:00,73.2,69.1,30.17,ENE,63,0.9,3.5,87,0.00,,,0.00,0.0,WeatherDisplay:10.37,2013-01-09 02:20:00,
2013-01-08 21:25:00,73.1,69.0,30.17,ESE,113,0.7,2.3,87,0.00,,,0.00,0.0,WeatherDisplay:10.37,2013-01-09 02:25:00,
2013-01-08 21:30:00,73.0,68.9,30.17,NE,44,0.6,2.3,87,0.00,,,0.00,0.0,WeatherDisplay:10.37,2013-01-09 02:30:00,
2013-01-08 21:35:00,72.9,69.1,30.17,NE,35,1.7,2.3,88,0.00,,,0.00,0.0,WeatherDisplay:10.37,2013-01-09 02:35:00,
2013-01-08 21:40:00,72.9,69.1,30.17,East,85,1.9,5.0,88,0.00,,,0.00,0.0,WeatherDisplay:10.37,2013-01-09 02:40:00,
2013-01-08 21:45:00,72.9,69.1,30.17,ENE,70,0.0,1.1,88,0.00,,,0.00,0.0,WeatherDisplay:10.37,2013-01-09 02:45:00,
2013-01-08 21:50:00,72.9,69.1,30.17,East,90,1.5,4.6,88,0.00,,,0.00,0.0,WeatherDisplay:10.37,2013-01-09 02:50:00,
2013-01-08 21:55:00,72.9,69.1,30.18,ENE,76,1.2,3.5,88,0.00,,,0.00,0.0,WeatherDisplay:10.37,2013-01-09 02:55:00,
2013-01-08 22:00:00,72.9,69.5,30.18,NE,44,1.7,3.5,89,0.00,,,0.00,0.0,WeatherDisplay:10.37,2013-01-09 03:00:00,
2013-01-08 22:05:00,72.7,69.3,30.18,ENE,61,1.7,3.5,89,0.00,,,0.00,0.0,WeatherDisplay:10.37,2013-01-09 03:05:00,
2013-01-08 22:10:00,72.6,69.2,30.18,ENE,68,1.5,2.3,89,0.00,,,0.00,0.0,WeatherDisplay:10.37,2013-01-09 03:10:00,
2013-01-08 22:15:00,72.4,69.0,30.18,East,88,0.6,3.5,89,0.00,,,0.00,0.0,WeatherDisplay:10.37,2013-01-09 03:15:00,
2013-01-08 22:20:00,72.2,69.1,30.18,NE,51,2.2,4.0,90,0.00,,,0.00,0.0,WeatherDisplay:10.37,2013-01-09 03:20:00,
2013-01-08 22:25:00,72.1,69.0,30.18,SE,127,0.9,3.5,90,0.00,,,0.00,0.0,WeatherDisplay:10.37,2013-01-09 03:25:00,
2013-01-08 22:30:00,72.0,69.2,30.18,East,86,0.6,2.3,91,0.00,,,0.00,0.0,WeatherDisplay:10.37,2013-01-09 03:30:00,
2013-01-08 22:35:00,71.9,69.1,30.18,ESE,102,0.0,2.3,91,0.00,,,0.00,0.0,WeatherDisplay:10.37,2013-01-09 03:35:00,
2013-01-08 22:40:00,71.8,69.0,30.18,NE,47,1.5,4.6,91,0.00,,,0.00,0.0,WeatherDisplay:10.37,2013-01-09 03:40:00,
2013-01-08 22:45:00,71.8,69.0,30.18,ESE,114,1.8,5.8,91,0.00,,,0.00,0.0,WeatherDisplay:10.37,2013-01-09 03:45:00,
2013-01-08 22:50:00,71.8,69.0,30.18,East,82,1.1,3.5,91,0.00,,,0.00,0.0,WeatherDisplay:10.37,2013-01-09 03:50:00,
2013-01-08 22:55:00,71.7,68.9,30.18,East,83,0.6,3.5,91,0.00,,,0.00,0.0,WeatherDisplay:10.37,2013-01-09 03:55:00,
2013-01-08 23:00:00,71.7,69.3,30.18,East,82,1.0,5.0,92,0.00,,,0.00,0.0,WeatherDisplay:10.37,2013-01-09 04:00:00,
2013-01-08 23:05:00,71.7,69.3,30.19,ENE,61,1.3,6.9,92,0.00,,,0.00,0.0,WeatherDisplay:10.37,2013-01-09 04:05:00,
2013-01-08 23:10:00,71.7,69.3,30.19,ENE,73,0.2,3.5,92,0.00,,,0.00,0.0,WeatherDisplay:10.37,2013-01-09 04:10:00,
2013-01-08 23:15:00,71.7,69.3,30.19,ESE,110,0.8,6.0,92,0.00,,,0.00,0.0,WeatherDisplay:10.37,2013-01-09 04:15:00,
2013-01-08 23:20:00,71.7,69.3,30.19,East,90,1.3,3.5,92,0.00,,,0.00,0.0,WeatherDisplay:10.37,2013-01-09 04:20:00,
2013-01-08 23:25:00,71.7,69.3,30.19,ENE,77,2.0,3.5,92,0.00,,,0.00,0.0,WeatherDisplay:10.37,2013-01-09 04:25:00,
2013-01-08 23:30:00,71.7,69.3,30.19,ESE,122,1.9,4.6,92,0.00,,,0.00,0.0,WeatherDisplay:10.37,2013-01-09 04:30:00,
2013-01-08 23:35:00,71.7,69.3,30.19,East,98,2.1,4.6,92,0.00,,,0.00,0.0,WeatherDisplay:10.37,2013-01-09 04:35:00,
2013-01-08 23:40:00,71.7,69.3,30.19,East,88,0.0,3.5,92,0.00,,,0.00,0.0,WeatherDisplay:10.37,2013-01-09 04:40:00,
2013-01-08 23:45:00,71.7,69.3,30.19,ENE,76,0.7,4.0,92,0.00,,,0.00,0.0,WeatherDisplay:10.37,2013-01-09 04:45:00,
2013-01-08 23:50:00,71.6,69.2,30.19,ESE,116,1.2,3.0,92,0.00,,,0.00,0.0,WeatherDisplay:10.37,2013-01-09 04:50:00,
2013-01-08 23:55:00,71.6,69.5,30.19,SE,130,2.2,4.6,93,0.00,,,0.00,0.0,WeatherDisplay:10.37,2013-01-09 04:55:00,